Hutchinson, Kansas
Current Conditions -  °F | °C
As of 8:52 PM on Tuesday 21 Oct 2014 (Local Time) from KHUT Reporting Station
Clear Clear  
Wind Chill: 68°   Ceiling: Unl
Heat Index: 68°   Visibility: 10mi
Dew Point: 58°   Wind: 9mph
Humidity: 70%   Direction: 140°SE
Pressure: 30.03"   Gusts: NA
Location:  38.06°N, 97.93°W
Report Text: KHUT 220152Z 14008KT 10SM CLR 20/14 A3003 RMK AO2 SLP153 T02000144
Loading
Personal Weather Stations






























Interactive Weather Map
Tropical Storm Tracking
New forecast layout! Learn more

10-Day Weather Forecast

Advertisements
Track Severe Weather on mobile